Time;durP1;ratioP1;P1;durP2;ratioP2;P2;SDS_P1;SDS_P2;PMS_P1;PMS_P2;Temp;Humidity;BMP_temperature;BMP_pressure;BME280_temperature;BME280_humidity;BME280_pressure;Samples;Min_cycle;Max_cycle;Signal;HPM_P1;HPM_P2
2023/06/19 00:01:34;;;;;;;1.30;1.13;;;;;;;17.10;72.70;99530.59;5115609;28;20074;-63
2023/06/19 00:04:03;;;;;;;1.20;0.77;;;;;;;17.08;72.76;99525.50;5117791;28;20078;-63
2023/06/19 00:06:32;;;;;;;1.63;1.52;;;;;;;17.01;72.80;99526.56;5117918;28;20056;-63
2023/06/19 00:09:03;;;;;;;0.95;0.70;;;;;;;16.97;72.70;99527.53;5117919;28;20114;-63
2023/06/19 00:11:32;;;;;;;0.63;0.63;;;;;;;16.94;72.81;99527.63;5118133;28;20082;-62
2023/06/19 00:14:01;;;;;;;0.60;0.60;;;;;;;16.92;72.87;99521.66;5118275;28;20093;-63
2023/06/19 00:16:30;;;;;;;0.43;0.43;;;;;;;16.89;73.03;99526.94;5117635;28;20096;-63
2023/06/19 00:18:59;;;;;;;3.00;1.20;;;;;;;16.87;73.28;99531.25;5117592;28;20275;-62
2023/06/19 00:21:28;;;;;;;0.97;0.90;;;;;;;16.90;72.94;99536.34;5117588;28;20043;-63
2023/06/19 00:23:57;;;;;;;1.05;0.95;;;;;;;16.82;73.17;99527.16;5117245;28;20445;-63
2023/06/19 00:26:27;;;;;;;1.87;1.67;;;;;;;16.82;72.73;99533.13;5117461;27;20101;-63
2023/06/19 00:28:58;;;;;;;1.95;1.50;;;;;;;16.76;72.65;99520.44;5117765;28;20050;-63
2023/06/19 00:31:28;;;;;;;1.48;1.00;;;;;;;16.70;73.08;99523.16;5116590;28;20439;-63
2023/06/19 00:33:57;;;;;;;2.42;0.93;;;;;;;16.70;73.02;99523.16;5117364;28;20071;-63
2023/06/19 00:36:26;;;;;;;1.73;1.08;;;;;;;16.58;72.71;99523.53;5116059;28;20040;-63
2023/06/19 00:38:56;;;;;;;0.93;0.93;;;;;;;16.60;73.11;99524.31;5116939;28;20063;-63
2023/06/19 00:41:30;;;;;;;1.63;1.20;;;;;;;16.58;73.11;99523.53;5116034;28;20054;-62
2023/06/19 00:43:59;;;;;;;0.95;0.85;;;;;;;16.63;73.11;99519.06;5117092;28;20082;-63
2023/06/19 00:46:29;;;;;;;8.50;1.00;;;;;;;16.68;72.88;99524.94;5117051;28;20078;-63
2023/06/19 00:48:59;;;;;;;1.55;0.90;;;;;;;16.63;73.01;99522.50;5117108;28;20175;-62
2023/06/19 00:51:28;;;;;;;2.17;1.98;;;;;;;16.63;72.99;99516.50;5117026;28;20051;-63
2023/06/19 00:53:56;;;;;;;0.83;0.83;;;;;;;16.56;72.96;99518.41;5116939;28;20130;-63
2023/06/19 00:56:25;;;;;;;0.90;0.87;;;;;;;16.55;73.12;99521.88;5117166;28;20786;-62
2023/06/19 00:58:56;;;;;;;18.85;1.95;;;;;;;16.54;73.39;99511.59;5116950;28;20516;-63
2023/06/19 01:01:27;;;;;;;1.30;1.17;;;;;;;16.54;73.46;99514.16;5116881;28;20043;-63
2023/06/19 01:03:57;;;;;;;1.08;0.98;;;;;;;16.54;73.49;99503.88;5116781;28;20051;-63
2023/06/19 01:06:38;;;;;;;2.95;1.20;;;;;;;16.52;73.97;99505.66;5116740;28;20089;-63
2023/06/19 01:09:10;;;;;;;1.25;1.15;;;;;;;16.49;73.84;99513.41;5115574;28;20040;-62
2023/06/19 01:11:45;;;;;;;1.77;0.95;;;;;;;16.48;73.86;99506.59;5115339;28;20150;-63
2023/06/19 01:14:21;;;;;;;1.20;1.10;;;;;;;16.46;73.96;99498.06;5115727;28;20400;-63
2023/06/19 01:16:51;;;;;;;1.55;1.20;;;;;;;16.48;73.96;99498.88;5116537;28;20048;-62
2023/06/19 01:19:23;;;;;;;1.40;0.95;;;;;;;16.47;74.12;99500.59;5117123;28;20117;-62
2023/06/19 01:21:52;;;;;;;1.02;0.93;;;;;;;16.44;74.22;99505.81;5116426;28;20044;-62
2023/06/19 01:24:22;;;;;;;1.42;1.13;;;;;;;16.39;74.52;99502.50;5116614;28;20091;-63
2023/06/19 01:26:51;;;;;;;1.13;1.02;;;;;;;16.31;74.43;99501.91;5115404;28;20047;-63
2023/06/19 01:29:22;;;;;;;2.22;1.13;;;;;;;16.22;74.57;99514.19;5116387;28;20047;-63
2023/06/19 01:31:58;;;;;;;1.40;1.25;;;;;;;16.24;75.01;99512.41;5116817;28;20071;-63
2023/06/19 01:34:30;;;;;;;1.08;0.93;;;;;;;16.24;75.10;99514.97;5116235;28;20046;-63
2023/06/19 01:37:01;;;;;;;1.45;1.15;;;;;;;16.19;75.05;99520.25;5116444;28;20043;-62
2023/06/19 01:39:35;;;;;;;0.95;0.95;;;;;;;16.22;75.24;99524.47;5114723;28;20047;-63
2023/06/19 01:42:09;;;;;;;0.82;0.82;;;;;;;16.20;75.08;99510.78;5115237;28;20035;-63
2023/06/19 01:44:38;;;;;;;1.90;1.45;;;;;;;16.23;75.24;99508.13;5116152;28;20032;-62
2023/06/19 01:47:11;;;;;;;0.93;0.80;;;;;;;16.22;75.03;99509.84;5115978;28;20036;-63
2023/06/19 01:49:40;;;;;;;1.25;1.15;;;;;;;16.22;75.10;99509.03;5116051;28;20047;-63
2023/06/19 01:52:10;;;;;;;1.48;1.15;;;;;;;16.15;74.87;99520.38;5116477;28;20064;-63
2023/06/19 01:54:40;;;;;;;0.88;0.82;;;;;;;16.04;74.95;99524.06;5115842;28;20035;-63
2023/06/19 01:57:09;;;;;;;0.55;0.52;;;;;;;15.91;75.44;99525.25;5132109;27;20070;-63
2023/06/19 01:59:38;;;;;;;0.80;0.80;;;;;;;15.93;75.81;99520.88;5114484;28;20139;-62
2023/06/19 02:02:07;;;;;;;2.75;1.60;;;;;;;15.83;75.35;99522.03;5115696;28;20073;-62
2023/06/19 02:04:36;;;;;;;0.57;0.57;;;;;;;15.75;75.90;99523.94;5115557;28;20108;-63
2023/06/19 02:07:06;;;;;;;1.25;1.15;;;;;;;15.68;75.92;99524.97;5115597;28;20276;-62
2023/06/19 02:09:35;;;;;;;1.75;1.30;;;;;;;15.69;76.19;99513.75;5114542;28;20043;-63
2023/06/19 02:12:06;;;;;;;1.80;0.90;;;;;;;15.74;75.93;99522.22;5115475;28;20066;-62
2023/06/19 02:14:35;;;;;;;1.15;1.05;;;;;;;15.69;75.46;99524.06;5115441;28;20040;-63
2023/06/19 02:17:04;;;;;;;1.33;1.20;;;;;;;15.67;75.47;99525.81;5114175;28;20069;-63
2023/06/19 02:19:33;;;;;;;0.70;0.70;;;;;;;15.71;75.74;99516.31;5115203;28;20292;-62
2023/06/19 02:22:02;;;;;;;3.17;2.08;;;;;;;15.68;75.71;99530.09;5115220;28;20295;-63
2023/06/19 02:24:31;;;;;;;1.30;1.02;;;;;;;15.70;75.96;99525.75;5114308;28;20067;-62
2023/06/19 02:27:01;;;;;;;3.77;1.90;;;;;;;15.74;75.60;99517.06;5114000;28;20036;-63
2023/06/19 02:29:33;;;;;;;0.88;0.85;;;;;;;15.68;75.60;99517.25;5115399;28;20048;-63
2023/06/19 02:32:04;;;;;;;1.63;1.52;;;;;;;15.65;75.70;99514.72;5115894;28;20047;-63
2023/06/19 02:34:35;;;;;;;1.23;0.77;;;;;;;15.64;75.79;99515.63;5114987;28;20077;-63
2023/06/19 02:37:08;;;;;;;0.65;0.65;;;;;;;15.68;76.12;99509.53;5114944;28;20040;-63
2023/06/19 02:39:38;;;;;;;3.05;1.15;;;;;;;15.69;75.92;99513.75;5114783;28;20082;-63
2023/06/19 02:42:09;;;;;;;0.77;0.77;;;;;;;15.67;75.80;99520.69;5114915;28;20047;-63
2023/06/19 02:44:40;;;;;;;0.98;0.93;;;;;;;15.67;75.81;99518.09;5079734;28;20047;-63
2023/06/19 02:47:09;;;;;;;1.55;0.98;;;;;;;15.67;75.88;99525.00;5115156;28;20043;-62
2023/06/19 02:49:37;;;;;;;0.80;0.80;;;;;;;15.68;76.03;99511.25;5113860;28;20059;-63
2023/06/19 02:52:08;;;;;;;0.70;0.70;;;;;;;15.57;75.69;99514.09;5114629;28;20280;-62
2023/06/19 02:54:38;;;;;;;0.70;0.70;;;;;;;15.56;75.90;99522.66;5113605;28;20493;-63
2023/06/19 02:57:08;;;;;;;0.97;0.87;;;;;;;15.57;75.46;99524.38;5114912;28;20546;-63
2023/06/19 02:59:39;;;;;;;1.13;1.02;;;;;;;15.57;75.55;99519.22;5114535;28;20056;-63
2023/06/19 03:02:08;;;;;;;2.20;1.08;;;;;;;15.57;75.61;99523.53;5114803;28;20044;-63
2023/06/19 03:04:37;;;;;;;1.38;1.02;;;;;;;15.57;75.29;99524.38;5114744;28;20039;-63
2023/06/19 03:07:07;;;;;;;3.40;1.40;;;;;;;15.37;75.39;99527.38;5114401;28;20043;-62
2023/06/19 03:09:35;;;;;;;4.28;1.20;;;;;;;15.23;75.85;99520.84;5114704;28;20388;-63
2023/06/19 03:12:05;;;;;;;1.03;0.93;;;;;;;15.14;76.94;99527.00;5113172;28;20067;-62
2023/06/19 03:14:34;;;;;;;1.45;1.33;;;;;;;15.12;76.68;99525.34;5113178;28;20274;-62
2023/06/19 03:17:05;;;;;;;1.07;1.03;;;;;;;15.14;77.16;99516.72;5114262;28;20143;-63
2023/06/19 03:19:35;;;;;;;2.25;2.05;;;;;;;15.20;77.41;99514.03;5114261;28;20524;-63
2023/06/19 03:22:06;;;;;;;0.85;0.82;;;;;;;15.29;76.41;99518.13;5114132;28;20047;-63
2023/06/19 03:24:35;;;;;;;0.88;0.85;;;;;;;15.25;76.46;99516.50;5112922;28;20044;-63
2023/06/19 03:27:17;;;;;;;1.50;1.15;;;;;;;15.19;76.33;99521.75;5114282;28;20048;-63
2023/06/19 03:29:46;;;;;;;0.82;0.82;;;;;;;15.14;76.76;99524.44;5113242;28;20119;-63
2023/06/19 03:32:22;;;;;;;2.60;1.60;;;;;;;15.26;76.96;99524.16;5113923;28;20043;-63
2023/06/19 03:34:52;;;;;;;1.08;0.98;;;;;;;15.37;76.63;99526.53;5113894;28;20035;-63
2023/06/19 03:37:21;;;;;;;0.82;0.82;;;;;;;15.44;76.04;99530.63;5114017;28;20036;-63
2023/06/19 03:39:50;;;;;;;1.95;1.50;;;;;;;15.45;75.65;99534.94;5112715;28;20092;-63
2023/06/19 03:42:19;;;;;;;1.37;1.27;;;;;;;15.48;75.50;99529.72;5112996;28;20381;-63
2023/06/19 03:44:48;;;;;;;0.73;0.73;;;;;;;15.43;75.84;99536.66;5112999;28;20027;-63
2023/06/19 03:47:18;;;;;;;0.82;0.70;;;;;;;15.42;75.93;99529.84;5114199;28;20284;-63
2023/06/19 03:49:49;;;;;;;1.13;0.80;;;;;;;15.60;75.81;99529.44;5114243;28;20048;-63
2023/06/19 03:52:20;;;;;;;0.95;0.93;;;;;;;15.70;75.96;99532.63;5114448;28;20047;-62
2023/06/19 03:54:49;;;;;;;1.38;1.27;;;;;;;15.77;75.24;99524.72;5114015;28;20505;-63
2023/06/19 03:57:20;;;;;;;1.42;1.25;;;;;;;15.85;75.32;99527.97;5114235;28;20054;-63
2023/06/19 03:59:48;;;;;;;2.07;1.73;;;;;;;15.91;75.19;99532.09;5112643;28;20094;-63
2023/06/19 04:02:17;;;;;;;1.85;1.70;;;;;;;15.86;75.07;99537.38;5112782;28;20388;-63
2023/06/19 04:04:48;;;;;;;1.57;1.47;;;;;;;15.82;75.85;99525.47;5114269;28;20042;-63
2023/06/19 04:07:17;;;;;;;3.75;2.35;;;;;;;15.90;75.96;99523.56;5112899;28;20144;-63
2023/06/19 04:09:46;;;;;;;0.80;0.80;;;;;;;15.98;75.26;99526.78;5114017;28;20036;-63
2023/06/19 04:12:15;;;;;;;1.73;1.15;;;;;;;16.09;74.82;99529.09;5113708;28;20051;-63
2023/06/19 04:14:44;;;;;;;2.07;1.83;;;;;;;16.13;74.81;99525.53;5112408;28;20054;-63
2023/06/19 04:17:13;;;;;;;0.93;0.90;;;;;;;16.22;74.74;99527.88;5113628;28;20286;-63
2023/06/19 04:19:42;;;;;;;1.45;1.00;;;;;;;16.29;74.21;99526.00;5112479;28;20044;-63
2023/06/19 04:22:12;;;;;;;2.60;1.40;;;;;;;16.35;74.17;99516.38;5114001;28;20043;-63
2023/06/19 04:24:41;;;;;;;1.73;1.58;;;;;;;16.44;74.19;99520.41;5113573;28;20055;-63
2023/06/19 04:27:10;;;;;;;1.52;1.42;;;;;;;16.49;73.88;99521.16;5113449;28;20050;-63
2023/06/19 04:29:39;;;;;;;1.50;1.17;;;;;;;16.57;74.23;99521.81;5113874;28;20036;-64
2023/06/19 04:32:11;;;;;;;1.30;1.20;;;;;;;16.69;73.48;99516.34;5113456;28;20047;-63
2023/06/19 04:34:40;;;;;;;1.23;1.13;;;;;;;16.83;73.37;99518.50;5113669;28;20447;-63
2023/06/19 04:37:09;;;;;;;1.17;1.07;;;;;;;16.95;73.00;99516.44;5113479;28;20123;-63
2023/06/19 04:39:40;;;;;;;0.85;0.80;;;;;;;17.06;72.82;99522.09;5113160;28;20047;-63
2023/06/19 04:42:08;;;;;;;0.70;0.70;;;;;;;17.20;72.58;99527.69;5113719;28;20413;-63
2023/06/19 04:44:37;;;;;;;8.52;1.58;;;;;;;17.37;72.54;99528.03;5113661;28;20065;-63
2023/06/19 04:47:07;;;;;;;0.63;0.63;;;;;;;17.56;71.92;99525.78;5115311;28;20055;-63
2023/06/19 04:49:36;;;;;;;1.30;0.80;;;;;;;17.78;71.53;99523.38;5117360;28;20284;-63
2023/06/19 04:52:05;;;;;;;1.23;0.97;;;;;;;17.95;71.04;99531.38;5117033;28;20069;-63
2023/06/19 04:54:34;;;;;;;0.63;0.63;;;;;;;18.02;70.46;99538.03;5117227;27;20067;-63
2023/06/19 04:57:06;;;;;;;0.80;0.80;;;;;;;18.04;69.77;99537.06;5117266;28;20444;-62
2023/06/19 04:59:35;;;;;;;6.43;1.02;;;;;;;18.02;69.04;99532.84;5117015;28;20301;-63
2023/06/19 05:02:04;;;;;;;1.00;0.90;;;;;;;18.15;68.86;99539.31;5116817;28;20048;-63
2023/06/19 05:04:33;;;;;;;2.00;1.40;;;;;;;18.42;68.37;99540.97;5116685;28;20271;-63
2023/06/19 05:07:02;;;;;;;1.53;1.30;;;;;;;18.52;67.84;99542.34;5116704;28;20035;-63
2023/06/19 05:09:31;;;;;;;0.90;0.88;;;;;;;18.44;67.70;99546.91;5116654;28;20042;-63
2023/06/19 05:12:00;;;;;;;1.23;0.87;;;;;;;18.58;67.54;99549.91;5116955;28;20507;-63
2023/06/19 05:14:30;;;;;;;1.48;1.27;;;;;;;18.55;67.32;99538.81;5116596;28;20039;-63
2023/06/19 05:16:59;;;;;;;0.82;0.70;;;;;;;18.58;67.35;99543.88;5116506;28;20047;-63
2023/06/19 05:19:28;;;;;;;4.33;2.40;;;;;;;18.55;67.31;99541.38;5116698;28;20039;-63
2023/06/19 05:21:57;;;;;;;6.85;1.48;;;;;;;18.67;67.19;99549.56;5117269;27;20404;-63
2023/06/19 05:24:26;;;;;;;1.23;1.13;;;;;;;18.72;67.30;99552.84;5116398;28;20040;-64
2023/06/19 05:26:55;;;;;;;2.65;0.98;;;;;;;18.75;67.07;99557.06;5116452;28;20048;-63
2023/06/19 05:29:24;;;;;;;1.38;1.27;;;;;;;18.72;67.11;99547.66;5115333;28;20523;-63
2023/06/19 05:31:54;;;;;;;0.52;0.52;;;;;;;18.90;67.10;99546.16;5116262;28;20051;-63
2023/06/19 05:34:23;;;;;;;1.00;0.80;;;;;;;19.10;66.68;99546.25;5116573;27;20519;-63
2023/06/19 05:36:52;;;;;;;1.95;0.88;;;;;;;19.24;66.51;99545.75;5116420;28;20043;-63
2023/06/19 05:39:21;;;;;;;3.63;1.13;;;;;;;19.45;65.90;99550.13;5115872;28;20048;-63
2023/06/19 05:41:50;;;;;;;0.60;0.60;;;;;;;19.71;65.47;99542.19;5116045;28;20036;-63
2023/06/19 05:44:19;;;;;;;0.50;0.50;;;;;;;19.98;64.94;99545.41;5116343;28;20044;-63
2023/06/19 05:46:48;;;;;;;1.92;1.58;;;;;;;20.22;64.13;99559.09;5115801;28;20131;-64
2023/06/19 05:49:18;;;;;;;0.63;0.63;;;;;;;20.31;63.29;99556.13;5116257;28;20039;-64
2023/06/19 05:51:47;;;;;;;1.77;1.30;;;;;;;20.43;62.71;99547.84;5115872;28;20481;-65
2023/06/19 05:54:17;;;;;;;1.23;1.13;;;;;;;20.46;62.13;99560.69;5109156;28;20115;-63
2023/06/19 05:56:47;;;;;;;1.27;0.70;;;;;;;20.52;61.94;99552.63;5094399;28;20494;-63
2023/06/19 05:59:16;;;;;;;0.60;0.60;;;;;;;20.50;62.10;99554.44;5095339;28;20048;-64
2023/06/19 06:01:45;;;;;;;0.60;0.60;;;;;;;20.44;61.87;99552.94;5095266;28;20054;-64
2023/06/19 06:04:14;;;;;;;1.77;0.73;;;;;;;20.35;62.04;99560.28;5095844;28;20135;-64
2023/06/19 06:06:44;;;;;;;0.68;0.68;;;;;;;20.30;61.77;99557.06;5097235;28;20301;-63
2023/06/19 06:09:14;;;;;;;0.70;0.70;;;;;;;20.34;62.16;99563.78;5095837;28;20040;-63
2023/06/19 06:11:43;;;;;;;0.65;0.65;;;;;;;20.45;62.16;99574.53;5102046;28;20044;-63
2023/06/19 06:14:12;;;;;;;0.97;0.87;;;;;;;20.51;61.86;99572.56;5098395;28;20494;-63
2023/06/19 06:16:41;;;;;;;1.50;1.10;;;;;;;20.54;61.75;99566.38;5094681;28;20048;-63
2023/06/19 06:19:10;;;;;;;0.53;0.50;;;;;;;20.67;61.96;99567.53;5095995;28;20284;-64
2023/06/19 06:21:40;;;;;;;0.93;0.90;;;;;;;20.75;61.64;99580.16;5103744;28;20850;-63
2023/06/19 06:24:10;;;;;;;1.42;1.15;;;;;;;20.83;61.59;99573.72;5097624;28;20492;-64
2023/06/19 06:26:39;;;;;;;1.42;1.10;;;;;;;20.97;61.95;99573.94;5094807;28;20039;-63
2023/06/19 06:29:08;;;;;;;3.90;1.37;;;;;;;20.97;61.72;99581.72;5094625;28;20039;-63
2023/06/19 06:31:39;;;;;;;1.10;1.00;;;;;;;20.80;61.57;99553.13;5094770;28;20288;-63
2023/06/19 06:34:08;;;;;;;0.80;0.80;;;;;;;20.97;61.56;99581.72;5094606;28;20079;-63
2023/06/19 06:36:37;;;;;;;1.17;1.08;;;;;;;21.04;61.84;99585.75;5095858;28;20503;-64
2023/06/19 06:39:19;;;;;;;1.25;1.13;;;;;;;21.15;61.52;99591.34;5114643;28;20048;-64
2023/06/19 06:41:47;;;;;;;0.80;0.80;;;;;;;21.25;61.52;99592.63;5114917;28;20040;-64
2023/06/19 06:44:16;;;;;;;2.90;1.43;;;;;;;21.48;61.07;99593.28;5114812;28;20051;-64
2023/06/19 06:46:45;;;;;;;1.48;1.23;;;;;;;21.70;61.08;99588.78;5102378;28;20086;-64
2023/06/19 06:49:16;;;;;;;2.72;1.45;;;;;;;21.86;60.38;99589.75;5094658;28;20118;-64
2023/06/19 06:51:46;;;;;;;1.20;1.10;;;;;;;21.89;59.96;99592.22;5094379;28;20123;-64
2023/06/19 06:54:15;;;;;;;0.82;0.82;;;;;;;21.98;59.92;99595.22;5094301;28;20489;-63
2023/06/19 06:56:47;;;;;;;0.57;0.57;;;;;;;22.06;59.75;99594.84;5102852;28;20043;-63
2023/06/19 06:59:16;;;;;;;0.60;0.60;;;;;;;22.11;59.53;99592.88;5114962;28;20039;-64
2023/06/19 07:01:45;;;;;;;0.43;0.43;;;;;;;22.20;59.90;99594.16;5114896;28;20112;-63
2023/06/19 07:04:14;;;;;;;0.50;0.50;;;;;;;22.09;59.69;99586.06;5110617;28;20127;-64
2023/06/19 07:06:43;;;;;;;0.57;0.57;;;;;;;22.21;59.71;99591.50;5114427;28;20379;-64
2023/06/19 07:09:13;;;;;;;0.90;0.77;;;;;;;22.34;59.71;99586.53;5114346;28;20119;-64
2023/06/19 07:11:41;;;;;;;3.88;2.25;;;;;;;22.38;59.80;99590.66;5096220;28;20397;-64
2023/06/19 07:14:12;;;;;;;1.80;1.08;;;;;;;22.44;59.95;99593.78;5093706;28;20051;-65
2023/06/19 07:16:40;;;;;;;3.53;1.25;;;;;;;22.48;59.82;99597.91;5094246;28;20051;-64
2023/06/19 07:19:09;;;;;;;0.75;0.75;;;;;;;22.50;59.38;99596.09;5094727;28;20478;-64
2023/06/19 07:21:39;;;;;;;0.55;0.47;;;;;;;22.48;59.32;99594.47;5093550;28;20105;-64
2023/06/19 07:24:09;;;;;;;0.50;0.50;;;;;;;22.45;59.22;99594.63;5094073;28;20387;-64
2023/06/19 07:26:38;;;;;;;0.98;0.90;;;;;;;22.53;59.08;99598.50;5094464;28;20044;-64
2023/06/19 07:29:06;;;;;;;0.68;0.65;;;;;;;22.64;59.50;99600.63;5093449;28;20067;-64
2023/06/19 07:31:37;;;;;;;9.52;1.83;;;;;;;22.81;59.36;99589.34;5093647;28;20050;-64
2023/06/19 07:34:06;;;;;;;1.98;1.02;;;;;;;22.89;59.03;99595.00;5097378;28;20036;-64
2023/06/19 07:36:36;;;;;;;1.75;0.85;;;;;;;23.10;58.99;99599.06;5094445;28;20044;-64
2023/06/19 07:39:04;;;;;;;0.93;0.80;;;;;;;23.44;58.39;99593.75;5093604;28;20047;-64
2023/06/19 07:41:33;;;;;;;1.13;1.02;;;;;;;23.58;57.73;99601.66;5093857;28;20333;-64
2023/06/19 07:44:02;;;;;;;1.48;1.38;;;;;;;23.53;57.17;99592.41;5093825;28;20509;-64
2023/06/19 07:46:31;;;;;;;0.70;0.70;;;;;;;23.63;57.21;99586.63;5093593;28;20040;-64
2023/06/19 07:49:01;;;;;;;1.55;1.13;;;;;;;23.76;57.19;99595.41;5091939;28;20044;-67
2023/06/19 07:51:30;;;;;;;2.40;1.55;;;;;;;23.94;56.79;99604.81;5094205;28;20051;-64
2023/06/19 07:53:59;;;;;;;3.23;1.43;;;;;;;24.00;56.60;99599.25;5093463;28;20045;-64
2023/06/19 07:56:28;;;;;;;1.60;1.30;;;;;;;23.86;56.94;99607.03;5093757;28;20288;-64
2023/06/19 07:58:57;;;;;;;1.85;1.40;;;;;;;23.91;57.04;99610.22;5093328;28;20044;-63
2023/06/19 08:01:26;;;;;;;0.70;0.70;;;;;;;23.91;56.60;99610.22;5093202;28;20044;-63
2023/06/19 08:03:54;;;;;;;1.30;1.20;;;;;;;23.82;56.67;99610.72;5093390;28;20033;-64
2023/06/19 08:06:25;;;;;;;0.75;0.75;;;;;;;23.93;57.13;99610.97;5093347;28;20075;-64
2023/06/19 08:08:53;;;;;;;0.77;0.77;;;;;;;23.94;56.55;99610.03;5104097;28;20543;-64
2023/06/19 08:11:22;;;;;;;0.93;0.83;;;;;;;24.00;56.92;99608.84;5111928;28;20047;-65
2023/06/19 08:13:51;;;;;;;0.80;0.80;;;;;;;24.15;57.50;99617.59;5112736;28;20268;-64
2023/06/19 08:16:20;;;;;;;2.30;1.57;;;;;;;24.21;57.00;99617.25;5110257;28;20063;-64
2023/06/19 08:18:49;;;;;;;0.60;0.60;;;;;;;24.28;56.37;99613.38;5108050;28;20641;-66
2023/06/19 08:21:18;;;;;;;0.63;0.63;;;;;;;24.51;55.72;99610.25;5094850;28;20432;-64
2023/06/19 08:23:48;;;;;;;1.05;0.95;;;;;;;24.77;55.27;99601.75;5097093;28;20032;-64
2023/06/19 08:26:17;;;;;;;2.05;1.50;;;;;;;25.09;55.78;99602.41;5097033;28;20055;-64
2023/06/19 08:28:46;;;;;;;1.15;1.05;;;;;;;25.25;56.54;99593.53;5097211;28;20473;-64
2023/06/19 08:31:16;;;;;;;1.15;1.05;;;;;;;25.49;54.57;99601.63;5097195;28;20527;-65
2023/06/19 08:33:45;;;;;;;0.75;0.75;;;;;;;25.53;53.41;99600.50;5097220;28;20036;-64
2023/06/19 08:36:14;;;;;;;0.52;0.50;;;;;;;25.63;53.26;99598.13;5096708;28;20062;-64
2023/06/19 08:38:42;;;;;;;1.45;1.15;;;;;;;25.68;52.57;99590.84;5096978;28;20055;-65
2023/06/19 08:41:13;;;;;;;0.80;0.80;;;;;;;25.70;51.25;99588.97;5097146;28;20055;-64
2023/06/19 08:43:42;;;;;;;1.95;1.40;;;;;;;25.80;51.35;99590.06;5097137;28;20048;-65
2023/06/19 08:46:13;;;;;;;1.08;0.98;;;;;;;26.04;51.10;99583.22;5096669;28;20408;-65
2023/06/19 08:48:42;;;;;;;1.30;1.00;;;;;;;26.23;50.30;99586.34;5096594;28;20071;-64
2023/06/19 08:51:13;;;;;;;1.52;1.17;;;;;;;26.35;49.50;99580.28;5096653;28;20043;-65
2023/06/19 08:53:47;;;;;;;0.85;0.82;;;;;;;26.41;49.13;99577.28;5096476;28;20048;-65
2023/06/19 08:56:18;;;;;;;0.57;0.57;;;;;;;26.48;48.24;99573.31;5096353;28;20044;-65
2023/06/19 08:58:47;;;;;;;0.75;0.75;;;;;;;26.53;48.32;99575.63;5096496;28;20494;-64
2023/06/19 09:01:19;;;;;;;0.80;0.80;;;;;;;26.69;48.27;99572.78;5096020;28;20048;-65
2023/06/19 09:03:51;;;;;;;1.35;1.23;;;;;;;26.81;48.42;99569.34;5096422;28;20040;-64
2023/06/19 09:06:21;;;;;;;0.88;0.70;;;;;;;26.91;47.82;99570.41;5095860;28;20048;-64
2023/06/19 09:08:59;;;;;;;1.00;0.90;;;;;;;26.92;47.76;99557.19;5096206;28;20047;-64
2023/06/19 09:11:31;;;;;;;1.08;0.93;;;;;;;27.09;46.81;99563.88;5096212;28;20098;-64
2023/06/19 09:14:00;;;;;;;1.55;1.25;;;;;;;27.21;46.26;99565.66;5096550;28;20040;-64
2023/06/19 09:16:38;;;;;;;1.13;1.00;;;;;;;27.34;46.94;99569.06;5096016;28;20046;-65
2023/06/19 09:19:08;;;;;;;1.20;1.10;;;;;;;27.46;46.62;99570.84;5116919;28;20072;-64
2023/06/19 09:21:38;;;;;;;2.53;1.10;;;;;;;27.52;46.19;99559.88;5108836;28;20047;-66
2023/06/19 09:24:08;;;;;;;0.40;0.40;;;;;;;27.83;46.20;99561.94;5095029;28;20044;-64
2023/06/19 09:26:40;;;;;;;1.02;0.93;;;;;;;28.00;45.94;99562.56;5103058;28;20397;-65
2023/06/19 09:29:13;;;;;;;0.65;0.65;;;;;;;27.90;44.87;99552.72;5111981;28;20040;-65
2023/06/19 09:31:44;;;;;;;0.68;0.68;;;;;;;27.85;45.15;99560.09;5112928;28;20552;-65
2023/06/19 09:34:13;;;;;;;0.85;0.73;;;;;;;27.90;44.81;99557.97;5102652;28;20051;-64
2023/06/19 09:36:42;;;;;;;;;;;;;;;28.29;45.59;99564.66;5096390;28;20032;-65
2023/06/19 09:39:13;;;;;;;1.02;0.60;;;;;;;28.45;45.54;99557.31;5096864;28;19924;-65
2023/06/19 09:41:48;;;;;;;0.52;0.52;;;;;;;28.55;44.55;99562.69;5116085;27;20071;-65
2023/06/19 09:44:22;;;;;;;1.50;1.00;;;;;;;28.28;43.87;99564.78;5116090;28;20084;-65
2023/06/19 09:46:53;;;;;;;1.60;1.15;;;;;;;28.24;43.89;99565.97;5115982;28;20039;-64
2023/06/19 09:49:29;;;;;;;1.20;1.10;;;;;;;28.32;44.18;99563.59;5112236;27;20048;-64
2023/06/19 09:51:58;;;;;;;0.70;0.70;;;;;;;28.18;43.79;99563.78;5095710;28;20413;-64
2023/06/19 09:54:27;;;;;;;0.73;0.73;;;;;;;28.05;44.29;99558.63;5095698;28;20032;-64
2023/06/19 09:57:00;;;;;;;1.17;1.08;;;;;;;28.07;43.87;99559.38;5095363;28;20101;-65
2023/06/19 09:59:29;;;;;;;0.60;0.60;;;;;;;28.15;43.49;99556.97;5096529;28;20050;-65
2023/06/19 10:01:58;;;;;;;1.73;0.60;;;;;;;28.44;44.03;99557.41;5115943;28;20115;-64
2023/06/19 10:04:28;;;;;;;0.88;0.85;;;;;;;28.79;44.78;99563.47;5102417;28;20101;-64
2023/06/19 10:06:58;;;;;;;0.45;0.40;;;;;;;28.81;42.99;99556.31;5095232;28;20062;-64
2023/06/19 10:09:34;;;;;;;1.92;1.35;;;;;;;28.66;42.31;99552.22;5094877;28;20067;-64
2023/06/19 10:12:13;;;;;;;1.45;1.08;;;;;;;28.83;42.75;99548.28;5095072;28;20117;-64
2023/06/19 10:14:49;;;;;;;0.65;0.65;;;;;;;28.82;43.00;99547.44;5095008;28;20056;-64
2023/06/19 10:17:18;;;;;;;1.67;0.95;;;;;;;28.81;42.35;99548.41;5095271;28;20481;-64
2023/06/19 10:19:52;;;;;;;0.80;0.80;;;;;;;28.75;42.07;99541.00;5097537;28;20101;-65
2023/06/19 10:22:22;;;;;;;1.08;0.93;;;;;;;28.74;42.21;99549.84;5113771;28;20047;-64
2023/06/19 10:24:51;;;;;;;0.82;0.70;;;;;;;29.05;42.83;99541.25;5113435;28;20121;-64
2023/06/19 10:27:25;;;;;;;0.57;0.57;;;;;;;29.11;41.72;99537.28;5115188;28;20051;-64
2023/06/19 10:29:54;;;;;;;0.82;0.80;;;;;;;29.03;41.26;99534.44;5112946;28;20047;-64
2023/06/19 10:32:33;;;;;;;1.25;0.98;;;;;;;29.23;41.53;99535.53;5115134;28;20046;-64
2023/06/19 10:35:12;;;;;;;0.70;0.70;;;;;;;29.12;41.93;99534.53;5114986;28;20043;-65
2023/06/19 10:37:41;;;;;;;0.82;0.82;;;;;;;29.25;42.24;99541.50;5115273;28;20443;-64
2023/06/19 10:40:12;;;;;;;0.60;0.60;;;;;;;29.51;42.42;99535.81;5103704;28;20436;-64
2023/06/19 10:42:43;;;;;;;0.88;0.85;;;;;;;29.73;42.79;99540.16;5095196;28;20153;-64
2023/06/19 10:45:15;;;;;;;0.77;0.77;;;;;;;29.56;41.27;99544.13;5094070;28;20075;-64
2023/06/19 10:47:45;;;;;;;2.47;1.25;;;;;;;29.36;40.96;99544.94;5094447;28;20498;-64
2023/06/19 10:50:15;;;;;;;1.20;0.85;;;;;;;29.02;39.71;99528.34;5094249;28;20541;-65
2023/06/19 10:52:45;;;;;;;1.00;0.90;;;;;;;29.09;38.98;99539.19;5094648;28;20048;-65
2023/06/19 10:55:14;;;;;;;0.65;0.65;;;;;;;29.00;39.00;99522.38;5094124;28;20498;-65
2023/06/19 10:57:47;;;;;;;0.63;0.63;;;;;;;29.19;39.36;99541.03;5095957;28;20040;-65
2023/06/19 11:00:24;;;;;;;1.00;0.90;;;;;;;29.25;40.00;99536.22;5094592;28;20055;-66
2023/06/19 11:02:54;;;;;;;3.00;0.70;;;;;;;29.35;40.22;99534.50;5094194;28;20039;-66
2023/06/19 11:05:23;;;;;;;;;;;;;;;29.30;40.06;99536.72;5094391;28;20040;-66
2023/06/19 11:07:53;;;;;;;0.73;0.73;;;;;;;29.17;39.81;99536.81;5100784;28;19965;-66
2023/06/19 11:10:25;;;;;;;1.65;1.42;;;;;;;29.07;40.42;99531.44;5094446;28;20531;-65
2023/06/19 11:12:58;;;;;;;1.00;0.85;;;;;;;29.29;40.79;99535.03;5093625;28;20131;-70
2023/06/19 11:15:30;;;;;;;2.03;1.17;;;;;;;29.49;40.72;99529.00;5109988;28;20393;-65
2023/06/19 11:18:00;;;;;;;1.13;0.70;;;;;;;29.56;39.78;99533.63;5094564;28;20098;-65
2023/06/19 11:20:30;;;;;;;1.38;1.00;;;;;;;29.76;40.43;99518.84;5094618;28;20440;-66
2023/06/19 11:23:00;;;;;;;1.17;1.00;;;;;;;29.88;39.72;99528.38;5096064;28;20497;-66
2023/06/19 11:25:36;;;;;;;1.23;1.13;;;;;;;29.80;38.73;99525.56;5093709;28;20054;-65
2023/06/19 11:28:13;;;;;;;1.10;1.00;;;;;;;29.78;39.50;99524.84;5093925;28;20115;-65
2023/06/19 11:30:44;;;;;;;1.08;0.98;;;;;;;29.48;39.06;99519.44;5093913;28;20062;-66
2023/06/19 11:33:22;;;;;;;1.17;1.08;;;;;;;29.50;39.75;99517.50;5092969;28;20048;-65
2023/06/19 11:35:52;;;;;;;0.80;0.80;;;;;;;29.49;39.79;99521.91;5093782;28;20040;-65
2023/06/19 11:38:25;;;;;;;1.35;1.05;;;;;;;29.66;40.69;99520.53;5108686;28;20095;-67
2023/06/19 11:40:56;;;;;;;1.50;1.27;;;;;;;29.93;40.24;99520.94;5097195;28;20043;-66
2023/06/19 11:43:28;;;;;;;1.20;1.10;;;;;;;29.97;39.35;99519.72;5092329;28;20047;-65
2023/06/19 11:46:03;;;;;;;1.05;0.90;;;;;;;29.89;38.66;99489.75;5092724;28;20048;-65
2023/06/19 11:48:33;;;;;;;3.63;1.38;;;;;;;29.94;38.27;99509.47;5092870;28;20048;-67